Time;durP1;ratioP1;P1;durP2;ratioP2;P2;SDS_P1;SDS_P2;PMS_P1;PMS_P2;Temp;Humidity;BMP_temperature;BMP_pressure;BME280_temperature;BME280_humidity;BME280_pressure;Samples;Min_cycle;Max_cycle;Signal;HPM_P1;HPM_P2
2021/12/30 05:33:26;;;;;;;40.53;4.43;;;9.20;99.90;;;;;;6264505;22;20057;-92
2021/12/30 15:42:04;;;;;;;46.45;5.70;;;10.10;99.90;;;;;;6247440;22;20090;-85
2021/12/30 15:44:32;;;;;;;60.88;6.95;;;10.10;99.90;;;;;;6245884;23;20019;-88
2021/12/30 15:46:59;;;;;;;52.83;5.90;;;10.10;99.90;;;;;;6245898;23;20026;-86
2021/12/30 15:49:26;;;;;;;53.92;6.47;;;10.10;99.90;;;;;;6225537;23;20448;-86
2021/12/30 15:51:53;;;;;;;51.10;7.63;;;10.10;99.90;;;;;;6216190;23;20025;-87
2021/12/30 15:54:21;;;;;;;36.50;6.15;;;10.10;99.90;;;;;;6215938;23;20024;-89
2021/12/30 15:56:48;;;;;;;51.03;7.47;;;10.10;99.90;;;;;;6217461;23;20044;-89
2021/12/30 15:59:17;;;;;;;50.83;6.53;;;10.10;99.90;;;;;;6216120;23;20095;-90
2021/12/30 16:01:47;;;;;;;41.95;6.40;;;10.10;99.90;;;;;;6215886;23;20021;-88
2021/12/30 16:04:14;;;;;;;49.05;6.00;;;10.10;99.90;;;;;;6217775;23;20008;-90
2021/12/30 16:06:42;;;;;;;56.38;7.55;;;10.10;99.90;;;;;;6191051;23;20016;-89
2021/12/30 16:09:11;;;;;;;50.38;6.00;;;10.10;99.90;;;;;;6215672;23;20036;-88
2021/12/30 16:11:38;;;;;;;48.47;5.05;;;10.10;99.90;;;;;;6221582;23;20099;-88
2021/12/30 16:14:05;;;;;;;48.90;6.05;;;10.10;99.90;;;;;;6216233;23;20459;-88
2021/12/30 16:16:32;;;;;;;44.38;7.28;;;10.10;99.90;;;;;;6217241;23;20087;-89
2021/12/30 16:19:00;;;;;;;49.05;7.40;;;10.10;99.90;;;;;;6215337;23;20024;-89
2021/12/30 16:21:27;;;;;;;23.73;6.35;;;10.10;99.90;;;;;;6190798;23;20032;-89
2021/12/30 16:23:54;;;;;;;35.50;5.85;;;10.00;99.90;;;;;;6215471;23;20070;-88
2021/12/30 16:26:21;;;;;;;36.08;6.63;;;10.00;99.90;;;;;;6190202;23;20043;-87
2021/12/30 16:28:48;;;;;;;30.23;5.10;;;10.00;99.90;;;;;;6216971;23;20373;-85
2021/12/30 16:31:15;;;;;;;32.20;6.13;;;10.00;99.90;;;;;;6218267;23;20047;-87
2021/12/30 16:33:42;;;;;;;40.10;6.50;;;10.00;99.90;;;;;;6215777;23;20024;-89
2021/12/30 16:36:09;;;;;;;39.13;4.88;;;10.00;99.90;;;;;;6215794;23;20020;-88
2021/12/30 16:38:36;;;;;;;39.38;5.40;;;10.00;99.90;;;;;;6216897;23;20021;-88
2021/12/30 16:41:04;;;;;;;36.13;4.93;;;10.00;99.90;;;;;;6216931;23;20048;-87
2021/12/30 16:43:32;;;;;;;48.42;6.13;;;10.00;99.90;;;;;;6217037;23;20436;-88
2021/12/30 16:45:59;;;;;;;41.17;7.07;;;10.00;99.90;;;;;;6217099;23;20455;-89
2021/12/30 16:48:28;;;;;;;35.97;6.47;;;10.10;99.90;;;;;;6190595;23;20112;-90
2021/12/30 16:50:55;;;;;;;44.53;5.90;;;10.00;99.90;;;;;;6215372;23;20020;-90
2021/12/30 16:53:22;;;;;;;41.17;5.65;;;10.00;99.90;;;;;;6215154;23;20399;-88
2021/12/30 16:55:50;;;;;;;38.67;5.15;;;10.00;99.90;;;;;;6190319;23;20348;-89
2021/12/30 16:58:17;;;;;;;48.05;6.40;;;10.00;99.90;;;;;;6216606;23;20028;-88
2021/12/30 17:00:44;;;;;;;47.75;5.03;;;10.00;99.90;;;;;;6219624;23;20074;-88
2021/12/30 17:03:15;;;;;;;29.70;3.63;;;9.90;99.90;;;;;;6215159;23;20017;-86
2021/12/30 17:05:43;;;;;;;34.50;4.78;;;10.00;99.90;;;;;;6215496;23;20340;-89
2021/12/30 17:08:30;;;;;;;;;;;;;;;;;;;;;
2021/12/30 17:20:00;;;;;;;35.95;4.70;;;10.00;99.90;;;;;;6156060;23;20008;-93
2021/12/30 17:25:41;;;;;;;44.47;5.88;;;10.10;99.90;;;;;;6133368;23;20114;-91
2021/12/30 17:31:53;;;;;;;31.35;5.30;;;10.10;99.90;;;;;;6294102;22;20103;-94
2021/12/30 17:34:41;;;;;;;37.78;4.57;;;10.10;99.90;;;;;;6229810;22;20016;-91
2021/12/30 17:37:16;;;;;;;30.83;5.85;;;10.10;99.90;;;;;;6250279;22;20447;-93
2021/12/30 17:42:58;;;;;;;49.15;7.55;;;10.10;99.90;;;;;;6247595;22;20043;-92
2021/12/30 17:50:12;;;;;;;44.78;6.32;;;10.10;99.90;;;;;;6226040;22;20027;-93
2021/12/30 17:52:58;;;;;;;33.63;5.50;;;10.10;99.90;;;;;;6226459;22;20401;-92
2021/12/30 17:55:57;;;;;;;29.73;4.95;;;10.10;99.90;;;;;;6231635;22;20303;-92
2021/12/30 17:58:53;;;;;;;35.20;4.85;;;10.10;99.90;;;;;;6241735;23;20024;-92
2021/12/30 18:01:58;;;;;;;58.15;6.13;;;10.10;99.90;;;;;;6220976;23;20020;-91
2021/12/30 18:04:44;;;;;;;37.25;4.75;;;10.10;99.90;;;;;;6223430;23;20016;-92
2021/12/30 18:15:24;;;;;;;;;;;;;;;;;;;;;
2021/12/30 18:18:40;;;;;;;44.33;5.28;;;10.10;99.90;;;;;;6060337;23;20018;-92
2021/12/30 18:21:27;;;;;;;52.65;5.40;;;10.10;99.90;;;;;;6129671;23;20022;-92
2021/12/30 18:47:30;;;;;;;41.20;5.50;;;10.10;99.90;;;;;;6278140;22;20077;-92
2021/12/30 18:50:31;;;;;;;43.53;5.40;;;10.20;99.90;;;;;;6185368;23;20036;-93
2021/12/30 18:53:34;;;;;;;36.15;6.75;;;10.20;99.90;;;;;;6247410;23;20111;-92
2021/12/30 18:56:47;;;;;;;43.35;6.22;;;10.20;99.90;;;;;;6228690;22;20110;-91
2021/12/30 20:55:19;;;;;;;41.20;5.35;;;10.10;99.90;;;;;;6234164;22;20090;-94
2021/12/30 22:08:03;;;;;;;40.08;6.35;;;10.10;99.90;;;;;;6271478;22;20473;-91
2021/12/30 22:10:50;;;;;;;24.35;4.88;;;10.10;99.90;;;;;;6229375;22;20071;-92
2021/12/30 22:13:35;;;;;;;40.55;7.28;;;10.10;99.90;;;;;;6251129;22;20032;-92
